地図

経路データ

SID SEASON NUMBER BASIN SUBBASIN NAME ISO_TIME NATURE LAT LON WMO_WIND WMO_PRES WMO_AGENCY TRACK_TYPE DIST2LAND LANDFALL IFLAG USA_AGENCY USA_ATCF_ID USA_LAT USA_LON USA_RECORD USA_STATUS USA_WIND USA_PRES USA_SSHS USA_R34_NE USA_R34_SE USA_R34_SW USA_R34_NW USA_R50_NE USA_R50_SE USA_R50_SW USA_R50_NW USA_R64_NE USA_R64_SE USA_R64_SW USA_R64_NW USA_POCI USA_ROCI USA_RMW USA_EYE TOKYO_LAT TOKYO_LON TOKYO_GRADE TOKYO_WIND TOKYO_PRES TOKYO_R50_DIR TOKYO_R50_LONG TOKYO_R50_SHORT TOKYO_R30_DIR TOKYO_R30_LONG TOKYO_R30_SHORT TOKYO_LAND CMA_LAT CMA_LON CMA_CAT CMA_WIND CMA_PRES HKO_LAT HKO_LON HKO_CAT HKO_WIND HKO_PRES NEWDELHI_LAT NEWDELHI_LON NEWDELHI_GRADE NEWDELHI_WIND NEWDELHI_PRES NEWDELHI_CI NEWDELHI_DP NEWDELHI_POCI REUNION_LAT REUNION_LON REUNION_TYPE REUNION_WIND REUNION_PRES REUNION_TNUM REUNION_CI REUNION_RMW REUNION_R34_NE REUNION_R34_SE REUNION_R34_SW REUNION_R34_NW REUNION_R50_NE REUNION_R50_SE REUNION_R50_SW REUNION_R50_NW REUNION_R64_NE REUNION_R64_SE REUNION_R64_SW REUNION_R64_NW BOM_LAT BOM_LON BOM_TYPE BOM_WIND BOM_PRES BOM_TNUM BOM_CI BOM_RMW BOM_R34_NE BOM_R34_SE BOM_R34_SW BOM_R34_NW BOM_R50_NE BOM_R50_SE BOM_R50_SW BOM_R50_NW BOM_R64_NE BOM_R64_SE BOM_R64_SW BOM_R64_NW BOM_ROCI BOM_POCI BOM_EYE BOM_POS_METHOD BOM_PRES_METHOD NADI_LAT NADI_LON NADI_CAT NADI_WIND NADI_PRES WELLINGTON_LAT WELLINGTON_LON WELLINGTON_WIND WELLINGTON_PRES DS824_LAT DS824_LON DS824_STAGE DS824_WIND DS824_PRES TD9636_LAT TD9636_LON TD9636_STAGE TD9636_WIND TD9636_PRES TD9635_LAT TD9635_LON TD9635_WIND TD9635_PRES TD9635_ROCI NEUMANN_LAT NEUMANN_LON NEUMANN_CLASS NEUMANN_WIND NEUMANN_PRES MLC_LAT MLC_LON MLC_CLASS MLC_WIND MLC_PRES USA_GUST BOM_GUST BOM_GUST_PER REUNION_GUST REUNION_GUST_PER USA_SEAHGT USA_SEARAD_NE USA_SEARAD_SE USA_SEARAD_SW USA_SEARAD_NW STORM_SPEED STORM_DIR
1969251N15259 1969 74 EP MM GLENDA 1969-09-08 00:00:00 TS 15.0000 -100.700 40 hurdat_epa main 218 218 O________OO___ hurdat_epa EP071969 15.0000 -100.700 TS 40 0 15.0000 -100.700 TC 40 15.0000 -100.700 2 8 290
1969251N15259 1969 74 EP MM GLENDA 1969-09-08 03:00:00 TS 15.1422 -101.099 main 232 222 P________PP___ EP071969 15.1478 -101.122 TS 42 0 15.1478 -101.122 TC 42 15.1199 -101.007 2 8 292
1969251N15259 1969 74 EP MM GLENDA 1969-09-08 06:00:00 TS 15.2924 -101.468 45 hurdat_epa main 225 214 O________OP___ hurdat_epa EP071969 15.3000 -101.500 TS 45 0 15.3000 -101.500 TC 45 15.2618 -101.341 2 8 295
1969251N15259 1969 74 EP MM GLENDA 1969-09-08 09:00:00 TS 15.4653 -101.802 main 214 208 P________PP___ EP071969 15.4697 -101.820 TS 47 0 15.4697 -101.820 TC 47 15.4478 -101.730 2 8 300
1969251N15259 1969 74 EP MM GLENDA 1969-09-08 12:00:00 TS 15.7000 -102.200 50 hurdat_epa main 214 211 O________OO___ hurdat_epa EP071969 15.7000 -102.200 TS 50 0 15.7000 -102.200 TC 50 15.7000 -102.200 2 11 301
1969251N15259 1969 74 EP MM GLENDA 1969-09-08 15:00:00 TS 16.0165 -102.763 main 219 193 P________PP___ EP071969 16.0126 -102.763 TS 50 0 16.0126 -102.763 TC 50 16.0321 -102.767 2 14 301
1969251N15259 1969 74 EP MM GLENDA 1969-09-08 18:00:00 TS 16.4053 -103.398 50 hurdat_epa main 197 173 O________OP___ hurdat_epa EP071969 16.4000 -103.400 TS 50 0 16.4000 -103.400 TC 50 16.4263 -103.391 2 15 304
1969251N15259 1969 74 EP MM GLENDA 1969-09-08 21:00:00 TS 16.8455 -104.028 main 176 154 P________PP___ EP071969 16.8426 -104.030 TS 50 0 16.8426 -104.030 TC 50 16.8572 -104.020 2 15 308
1969251N15259 1969 74 EP MM GLENDA 1969-09-09 00:00:00 TS 17.3000 -104.600 50 hurdat_epa main 161 161 O________OO___ hurdat_epa EP071969 17.3000 -104.600 TS 50 0 17.3000 -104.600 TC 50 17.3000 -104.600 2 13 312
1969251N15259 1969 74 EP MM GLENDA 1969-09-09 03:00:00 TS 17.6991 -105.036 main 163 138 P________PP___ EP071969 17.6997 -105.030 TS 50 0 17.6997 -105.030 TC 50 17.6966 -105.059 2 11 316
1969251N15259 1969 74 EP MM GLENDA 1969-09-09 06:00:00 TS 18.1008 -105.412 50 hurdat_epa main 138 122 O________OP___ hurdat_epa EP071969 18.1000 -105.400 TS 50 0 18.1000 -105.400 TC 50 18.1038 -105.462 2 11 319
1969251N15259 1969 74 EP MM GLENDA 1969-09-09 09:00:00 TS 18.5288 -105.807 main 130 122 P________PP___ EP071969 18.5274 -105.800 TS 50 0 18.5274 -105.800 TC 50 18.5342 -105.834 2 12 320
1969251N15259 1969 74 EP MM GLENDA 1969-09-09 12:00:00 TS 19.0000 -106.200 50 hurdat_epa main 122 115 O________OO___ hurdat_epa EP071969 19.0000 -106.200 TS 50 0 19.0000 -106.200 TC 50 19.0000 -106.200 2 13 324
1969251N15259 1969 74 EP MM GLENDA 1969-09-09 15:00:00 TS 19.5386 -106.589 main 127 123 P________PP___ EP071969 19.5349 -106.600 TS 50 0 19.5349 -106.600 TC 50 19.5533 -106.544 2 13 326
1969251N15259 1969 74 EP MM GLENDA 1969-09-09 18:00:00 TS 20.1071 -106.979 50 hurdat_epa main 139 137 O________OP___ hurdat_epa EP071969 20.1000 -107.000 TS 50 0 20.1000 -107.000 TC 50 20.1353 -106.896 2 14 328
1969251N15259 1969 74 EP MM GLENDA 1969-09-09 21:00:00 TS 20.6835 -107.338 main 169 169 P________PP___ EP071969 20.6794 -107.348 TS 57 0 20.6794 -107.348 TC 57 20.6997 -107.300 2 13 325
1969251N15259 1969 74 EP MM GLENDA 1969-09-10 00:00:00 TS 21.2000 -107.800 65 hurdat_epa main 235 197 O________OO___ hurdat_epa EP071969 21.2000 -107.800 HU 65 1 21.2000 -107.800 TC 65 21.2000 -107.800 3 14 310
1969251N15259 1969 74 EP MM GLENDA 1969-09-10 03:00:00 TS 21.5902 -108.497 main 197 123 P________PP___ EP071969 21.5952 -108.498 HU 60 0 21.5952 -108.498 TC 60 21.5698 -108.494 3 16 297
1969251N15259 1969 74 EP MM GLENDA 1969-09-10 06:00:00 TS 21.8941 -109.296 55 hurdat_epa main 123 89 O________OP___ hurdat_epa EP071969 21.9000 -109.300 TS 55 0 21.9000 -109.300 TC 55 21.8704 -109.278 3 16 291
1969251N15259 1969 74 EP MM GLENDA 1969-09-10 09:00:00 TS 22.1532 -110.085 main 78 78 P________PP___ EP071969 22.1576 -110.088 TS 50 0 22.1576 -110.088 TC 50 22.1355 -110.073 3 15 290
1969251N15259 1969 74 EP MM GLENDA 1969-09-10 12:00:00 TS 22.4000 -110.800 45 hurdat_epa main 99 99 O________OO___ hurdat_epa EP071969 22.4000 -110.800 TS 45 0 22.4000 -110.800 TC 45 22.4000 -110.800 2 13 295
1969251N15259 1969 74 EP MM GLENDA 1969-09-10 15:00:00 TS 22.6892 -111.349 main 132 132 P________PP___ EP071969 22.6845 -111.345 TS 45 0 22.6845 -111.345 TC 45 22.7080 -111.364 2 11 303
1969251N15259 1969 74 EP MM GLENDA 1969-09-10 18:00:00 TS 23.0051 -111.810 45 993 hurdat_epa main 142 136 O________OP___ hurdat_epa EP071969 23.0000 -111.800 TS 45 993 0 23.0000 -111.800 TC 45 993 23.0254 -111.849 2 11 307
1969251N15259 1969 74 EP MM GLENDA 1969-09-10 21:00:00 TS 23.3389 -112.269 main 142 123 P________PP___ EP071969 23.3349 -112.265 TS 42 0 23.3349 -112.265 TC 42 23.3552 -112.285 2 11 310
1969251N15259 1969 74 EP MM GLENDA 1969-09-11 00:00:00 TS 23.7000 -112.700 40 hurdat_epa main 127 120 O________OO___ hurdat_epa EP071969 23.7000 -112.700 TS 40 0 23.7000 -112.700 TC 40 23.7000 -112.700 2 11 315
1969251N15259 1969 74 EP MM GLENDA 1969-09-11 03:00:00 TS 24.0983 -113.105 main 120 120 P________PP___ EP071969 24.0998 -113.100 TS 32 -1 24.0998 -113.100 TC 32 24.0922 -113.123 2 11 317
1969251N15259 1969 74 EP MM GLENDA 1969-09-11 06:00:00 TS 24.4987 -113.507 25 hurdat_epa main 135 135 O________OP___ hurdat_epa EP071969 24.5000 -113.500 TD 25 -1 24.5000 -113.500 TC 25 24.4937 -113.535 2 11 316
1969251N15259 1969 74 EP MM GLENDA 1969-09-11 09:00:00 TS 24.8726 -113.939 main 171 171 P________PP___ EP071969 24.8724 -113.935 TD 25 -1 24.8724 -113.935 TC 25 24.8734 -113.954 2 11 311
1969251N15259 1969 74 EP MM GLENDA 1969-09-11 12:00:00 TS 25.2000 -114.400 25 hurdat_epa main 185 179 O________OO___ hurdat_epa EP071969 25.2000 -114.400 TD 25 -1 25.2000 -114.400 TC 25 25.2000 -114.400 1 11 305
1969251N15259 1969 74 EP MM GLENDA 1969-09-11 15:00:00 TS 25.4800 -114.885 main 186 186 P________PP___ EP071969 25.4873 -114.885 TD 25 -1 25.4873 -114.885 TC 25 25.4507 -114.886 1 10 298
1969251N15259 1969 74 EP MM GLENDA 1969-09-11 18:00:00 TS 25.6874 -115.401 25 hurdat_epa main 194 194 O________OP___ hurdat_epa EP071969 25.7000 -115.400 TD 25 -1 25.7000 -115.400 TC 25 25.6372 -115.405 1 10 289
1969251N15259 1969 74 EP MM GLENDA 1969-09-11 21:00:00 TS 25.8164 -115.943 main 216 216 P________PP___ EP071969 25.8254 -115.942 TD 25 -1 25.8254 -115.942 TC 25 25.7801 -115.947 1 10 282
1969251N15259 1969 74 EP MM GLENDA 1969-09-12 00:00:00 TS 25.9000 -116.500 25 hurdat_epa main 250 O________OO___ hurdat_epa EP071969 25.9000 -116.500 TD 25 -1 25.9000 -116.500 TC 25 25.9000 -116.500 1 10 280

IBTrACS Databaseについて

本データベースは、米国NOAAが公開する1842年以降の世界の熱帯低気圧のベストトラックデータアーカイブInternational Best Track Archive for Climate Stewardship (IBTrACS)を、ウェブで閲覧しやすい形式に変換したものです。

最終更新日:2021-12-06